createdAt,value
2022-09-07T00:01:40.240Z,2.05
2022-09-07T00:04:09.540Z,1.50
2022-09-07T00:06:37.297Z,1.48
2022-09-07T00:09:05.288Z,1.80
2022-09-07T00:11:32.939Z,2.70
2022-09-07T00:14:01.900Z,2.90
2022-09-07T00:16:30.246Z,2.13
2022-09-07T00:18:59.378Z,3.63
2022-09-07T00:21:27.532Z,1.40
2022-09-07T00:23:55.789Z,1.10
2022-09-07T00:26:24.966Z,1.30
2022-09-07T00:28:52.851Z,1.67
2022-09-07T00:36:17.744Z,1.38
2022-09-07T00:38:45.778Z,1.63
2022-09-07T00:41:13.890Z,1.58
2022-09-07T00:43:43.646Z,1.77
2022-09-07T00:46:13.783Z,1.45
2022-09-07T00:48:43.681Z,1.73
2022-09-07T00:51:13.875Z,1.55
2022-09-07T00:53:45.029Z,1.30
2022-09-07T00:56:12.983Z,1.92
2022-09-07T00:58:42.067Z,1.95
2022-09-07T01:01:10.279Z,1.65
2022-09-07T01:03:40.185Z,2.03
2022-09-07T01:06:09.816Z,1.88
2022-09-07T01:08:37.648Z,1.85
2022-09-07T01:13:34.326Z,2.38
2022-09-07T01:16:06.136Z,2.13
2022-09-07T01:18:37.212Z,2.50
2022-09-07T01:21:20.200Z,2.50
2022-09-07T01:24:16.998Z,2.88
2022-09-07T01:26:58.120Z,2.60
2022-09-07T01:29:30.179Z,2.55
2022-09-07T01:32:02.848Z,1.88
2022-09-07T01:34:31.089Z,1.92
2022-09-07T01:37:02.969Z,2.20
2022-09-07T01:39:35.882Z,2.75
2022-09-07T01:42:06.435Z,2.35
2022-09-07T01:44:38.768Z,3.50
2022-09-07T01:47:08.840Z,3.45
2022-09-07T01:49:38.857Z,2.58
2022-09-07T01:52:10.410Z,2.10
2022-09-07T01:54:40.128Z,2.72
2022-09-07T01:57:10.105Z,2.03
2022-09-07T01:59:41.421Z,2.67
2022-09-07T02:02:10.915Z,3.53
2022-09-07T02:04:40.771Z,3.17
2022-09-07T02:07:11.793Z,2.28
2022-09-07T02:09:42.649Z,1.77
2022-09-07T02:12:13.634Z,3.55
2022-09-07T02:14:43.951Z,4.60
2022-09-07T02:17:14.857Z,5.57
2022-09-07T02:19:45.435Z,2.40
2022-09-07T02:22:14.824Z,2.15
2022-09-07T02:24:44.248Z,2.15
2022-09-07T02:27:14.115Z,1.98
2022-09-07T02:29:43.709Z,2.65
2022-09-07T02:32:11.399Z,2.40
2022-09-07T02:34:39.229Z,2.13
2022-09-07T02:37:08.739Z,1.50
2022-09-07T02:39:36.529Z,3.75
2022-09-07T02:44:34.820Z,2.65
2022-09-07T02:47:08.999Z,2.83
2022-09-07T02:49:48.192Z,1.88
2022-09-07T02:52:20.876Z,2.13
2022-09-07T02:54:59.322Z,1.80
2022-09-07T02:57:34.351Z,2.28
2022-09-07T03:00:07.019Z,2.50
2022-09-07T03:02:40.633Z,2.30
2022-09-07T03:05:12.139Z,2.58
2022-09-07T03:07:44.193Z,2.10
2022-09-07T03:10:12.975Z,2.45
2022-09-07T03:12:41.600Z,2.60
2022-09-07T03:15:12.048Z,2.80
2022-09-07T03:17:41.817Z,2.60
2022-09-07T03:20:09.827Z,2.47
2022-09-07T03:22:37.560Z,2.30
2022-09-07T03:25:06.043Z,2.25
2022-09-07T03:27:34.090Z,2.60
2022-09-07T03:30:01.830Z,2.10
2022-09-07T03:32:31.361Z,2.75
2022-09-07T03:35:00.565Z,3.25
2022-09-07T03:37:28.634Z,2.90
2022-09-07T03:39:56.406Z,2.65
2022-09-07T03:42:24.153Z,2.72
2022-09-07T03:44:52.044Z,3.38
2022-09-07T03:47:19.653Z,2.47
2022-09-07T03:49:49.443Z,3.50
2022-09-07T03:52:18.827Z,4.95
2022-09-07T03:54:46.327Z,3.63
2022-09-07T03:57:14.328Z,2.92
2022-09-07T03:59:41.790Z,2.80
2022-09-07T04:02:09.305Z,2.88
2022-09-07T04:04:36.871Z,3.00
2022-09-07T04:07:04.681Z,2.58
2022-09-07T04:09:33.617Z,3.00
2022-09-07T04:12:01.127Z,3.00
2022-09-07T04:14:28.858Z,3.05
2022-09-07T04:16:56.452Z,3.67
2022-09-07T04:19:24.207Z,3.05
2022-09-07T04:21:51.658Z,2.58
2022-09-07T04:24:19.214Z,4.25
2022-09-07T04:26:48.022Z,4.20
2022-09-07T04:29:15.541Z,4.05
2022-09-07T04:31:42.983Z,3.22
2022-09-07T04:34:11.194Z,3.28
2022-09-07T04:36:38.849Z,3.83
2022-09-07T04:39:06.882Z,3.08
2022-09-07T04:41:34.832Z,4.45
2022-09-07T04:46:33.512Z,4.10
2022-09-07T04:49:01.885Z,4.07
2022-09-07T04:51:30.312Z,4.63
2022-09-07T04:53:58.417Z,6.90
2022-09-07T04:56:26.117Z,4.30
2022-09-07T04:58:53.656Z,4.30
2022-09-07T05:01:22.475Z,4.05
2022-09-07T05:03:51.502Z,4.28
2022-09-07T05:06:19.614Z,4.05
2022-09-07T05:08:48.321Z,3.33
2022-09-07T05:11:16.167Z,3.42
2022-09-07T05:13:44.013Z,4.20
2022-09-07T05:16:12.524Z,3.95
2022-09-07T05:18:40.058Z,3.83
2022-09-07T05:21:13.465Z,3.72
2022-09-07T05:23:40.974Z,3.90
2022-09-07T05:26:08.771Z,3.50
2022-09-07T05:28:36.646Z,3.55
2022-09-07T05:36:37.305Z,2.92
2022-09-07T05:39:05.727Z,3.80
2022-09-07T05:41:33.246Z,4.18
2022-09-07T05:46:48.250Z,4.60
2022-09-07T05:49:15.727Z,5.60
2022-09-07T05:51:44.565Z,5.20
2022-09-07T05:54:12.092Z,4.50
2022-09-07T05:56:39.589Z,4.00
2022-09-07T05:59:07.035Z,4.28
2022-09-07T06:01:35.305Z,4.18
2022-09-07T06:04:03.027Z,4.90
2022-09-07T06:06:31.123Z,6.07
2022-09-07T06:08:59.913Z,5.32
2022-09-07T06:11:27.515Z,5.70
2022-09-07T06:13:54.995Z,6.00
2022-09-07T06:16:22.710Z,7.75
2022-09-07T06:18:50.902Z,6.63
2022-09-07T06:21:19.649Z,5.68
2022-09-07T06:23:47.527Z,5.85
2022-09-07T06:28:46.721Z,7.05
2022-09-07T06:31:17.359Z,5.72
2022-09-07T06:33:45.619Z,6.13
2022-09-07T06:36:13.728Z,5.60
2022-09-07T06:38:41.371Z,5.88
2022-09-07T06:43:59.033Z,6.43
2022-09-07T06:49:14.071Z,6.57
2022-09-07T06:51:41.521Z,7.90
2022-09-07T06:56:57.833Z,6.50
2022-09-07T06:59:26.747Z,7.97
2022-09-07T07:01:54.184Z,8.82
2022-09-07T07:04:21.892Z,7.55
2022-09-07T07:06:49.350Z,7.07
2022-09-07T07:09:16.814Z,6.53
2022-09-07T07:11:47.263Z,6.72
2022-09-07T07:14:15.335Z,6.80
2022-09-07T07:16:44.428Z,7.82
2022-09-07T07:19:11.980Z,6.75
2022-09-07T07:22:05.600Z,10.15
2022-09-07T07:26:54.331Z,6.18
2022-09-07T07:29:23.894Z,6.68
2022-09-07T07:31:53.920Z,6.93
2022-09-07T07:34:21.418Z,7.28
2022-09-07T07:36:48.853Z,6.00
2022-09-07T07:42:05.892Z,5.32
2022-09-07T07:44:33.761Z,4.05
2022-09-07T07:47:02.643Z,4.72
2022-09-07T07:49:30.083Z,4.18
2022-09-07T07:57:12.740Z,4.03
2022-09-07T07:59:40.203Z,3.17
2022-09-07T08:02:14.951Z,2.95
2022-09-07T08:04:42.566Z,2.90
2022-09-07T08:07:11.383Z,3.15
2022-09-07T08:09:39.684Z,3.42
2022-09-07T08:12:07.219Z,2.70
2022-09-07T08:14:36.428Z,2.47
2022-09-07T08:17:03.953Z,2.92
2022-09-07T08:19:32.692Z,3.53
2022-09-07T08:22:00.539Z,3.30
2022-09-07T08:26:55.441Z,3.13
2022-09-07T08:29:23.018Z,2.70
2022-09-07T08:31:50.670Z,2.45
2022-09-07T08:34:18.238Z,2.15
2022-09-07T08:36:47.077Z,2.28
2022-09-07T08:39:14.589Z,2.50
2022-09-07T08:41:56.919Z,2.50
2022-09-07T08:44:26.441Z,2.90
2022-09-07T08:46:55.748Z,2.55
2022-09-07T08:49:28.552Z,2.40
2022-09-07T08:51:59.598Z,2.50
2022-09-07T08:54:27.877Z,2.40
2022-09-07T08:59:47.515Z,2.30
2022-09-07T09:02:36.513Z,1.95
2022-09-07T09:05:21.165Z,2.38
2022-09-07T09:07:55.373Z,2.15
2022-09-07T09:10:27.326Z,2.20
2022-09-07T09:12:59.136Z,2.22
2022-09-07T09:15:32.143Z,2.47
2022-09-07T09:18:02.992Z,2.20
2022-09-07T09:20:33.479Z,2.28
2022-09-07T09:23:03.993Z,2.70
2022-09-07T09:25:33.130Z,2.63
2022-09-07T09:28:00.933Z,2.83
2022-09-07T09:33:11.510Z,3.58
2022-09-07T09:35:39.860Z,3.08
2022-09-07T09:38:29.052Z,3.08
2022-09-07T09:40:57.130Z,3.45
2022-09-07T09:43:25.784Z,3.63
2022-09-07T09:48:42.077Z,4.05
2022-09-07T09:54:05.844Z,4.10
2022-09-07T09:56:36.989Z,4.32
2022-09-07T10:04:48.136Z,4.63
2022-09-07T10:07:19.011Z,3.50
2022-09-07T10:09:50.837Z,3.63
2022-09-07T10:12:25.407Z,3.63
2022-09-07T10:14:52.908Z,4.60
2022-09-07T10:17:23.851Z,4.25
2022-09-07T10:19:52.629Z,4.05
2022-09-07T10:22:29.706Z,4.35
2022-09-07T10:24:58.809Z,4.15
2022-09-07T10:27:30.147Z,3.92
2022-09-07T10:29:57.713Z,4.50
2022-09-07T10:32:28.560Z,3.80
2022-09-07T10:35:01.854Z,4.65
2022-09-07T10:37:34.192Z,5.05
2022-09-07T10:40:06.186Z,4.55
2022-09-07T10:42:34.416Z,3.08
2022-09-07T10:45:05.174Z,3.80
2022-09-07T10:47:37.417Z,4.10
2022-09-07T10:50:23.999Z,4.97
2022-09-07T10:52:54.746Z,5.55
2022-09-07T10:55:26.587Z,5.60
2022-09-07T10:57:58.808Z,6.03
2022-09-07T11:00:28.764Z,6.55
2022-09-07T11:05:59.226Z,4.85
2022-09-07T11:09:15.083Z,5.25
2022-09-07T11:12:00.736Z,5.80
2022-09-07T11:14:15.665Z,5.10
2022-09-07T11:16:51.907Z,4.75
2022-09-07T11:19:37.741Z,4.10
2022-09-07T11:22:11.815Z,4.22
2022-09-07T11:24:42.517Z,3.45
2022-09-07T11:27:15.187Z,3.35
2022-09-07T11:29:46.707Z,2.78
2022-09-07T11:32:17.854Z,2.72
2022-09-07T11:34:48.596Z,3.95
2022-09-07T11:37:20.605Z,3.35
2022-09-07T11:39:50.739Z,3.92
2022-09-07T11:45:16.148Z,3.42
2022-09-07T11:47:47.232Z,3.40
2022-09-07T11:50:16.607Z,4.05
2022-09-07T11:52:45.677Z,3.92
2022-09-07T11:55:15.952Z,4.15
2022-09-07T11:57:55.745Z,3.22
2022-09-07T12:00:24.485Z,3.17
2022-09-07T12:03:06.856Z,3.15
2022-09-07T12:05:44.910Z,2.50
2022-09-07T12:08:16.998Z,3.33
2022-09-07T12:11:11.364Z,3.67
2022-09-07T12:14:03.773Z,3.28
2022-09-07T12:16:37.563Z,3.33
2022-09-07T12:19:12.844Z,3.47
2022-09-07T12:21:44.187Z,3.35
2022-09-07T12:24:33.318Z,2.83
2022-09-07T12:27:00.820Z,3.75
2022-09-07T12:29:30.194Z,3.55
2022-09-07T12:31:59.670Z,3.05
2022-09-07T12:34:40.620Z,2.47
2022-09-07T12:37:22.954Z,3.30
2022-09-07T12:39:50.443Z,3.38
2022-09-07T12:42:38.939Z,3.65
2022-09-07T12:45:24.996Z,3.97
2022-09-07T12:47:59.304Z,4.00
2022-09-07T12:50:29.813Z,3.95
2022-09-07T12:53:12.455Z,3.30
2022-09-07T12:58:43.921Z,3.97
2022-09-07T13:01:20.293Z,3.22
2022-09-07T13:03:56.657Z,3.63
2022-09-07T13:09:25.873Z,4.32
2022-09-07T13:11:53.430Z,3.70
2022-09-07T13:14:23.205Z,3.42
2022-09-07T13:17:18.054Z,3.00
2022-09-07T13:20:04.355Z,3.22
2022-09-07T13:22:50.492Z,2.93
2022-09-07T13:25:36.357Z,3.53
2022-09-07T13:28:06.503Z,3.42
2022-09-07T13:30:45.616Z,3.58
2022-09-07T13:33:32.469Z,3.40
2022-09-07T13:36:01.505Z,4.00
2022-09-07T13:38:29.789Z,2.50
2022-09-07T13:41:00.408Z,2.30
2022-09-07T13:43:29.317Z,2.53
2022-09-07T13:46:01.257Z,2.25
2022-09-07T13:48:30.895Z,3.40
2022-09-07T13:51:03.483Z,2.30
2022-09-07T13:53:38.029Z,2.80
2022-09-07T13:56:09.446Z,2.42
2022-09-07T13:58:40.665Z,2.55
2022-09-07T14:01:09.304Z,2.90
2022-09-07T14:03:39.547Z,2.92
2022-09-07T14:06:25.709Z,2.33
2022-09-07T14:08:54.701Z,2.17
2022-09-07T14:11:23.514Z,2.60
2022-09-07T14:14:05.818Z,2.40
2022-09-07T14:16:34.789Z,2.13
2022-09-07T14:19:02.487Z,2.10
2022-09-07T14:21:29.963Z,2.17
2022-09-07T14:24:03.209Z,1.73
2022-09-07T14:26:30.691Z,1.98
2022-09-07T14:28:58.198Z,1.60
2022-09-07T14:31:25.994Z,1.50
2022-09-07T14:33:56.674Z,2.10
2022-09-07T14:36:44.087Z,2.03
2022-09-07T14:39:13.100Z,2.20
2022-09-07T14:41:42.007Z,1.80
2022-09-07T14:44:27.457Z,2.00
2022-09-07T14:46:57.039Z,2.47
2022-09-07T14:49:26.191Z,2.13
2022-09-07T14:51:54.580Z,2.40
2022-09-07T14:54:23.247Z,2.10
2022-09-07T14:57:02.347Z,2.15
2022-09-07T14:59:36.574Z,2.40
2022-09-07T15:02:24.141Z,2.40
2022-09-07T15:05:12.342Z,2.90
2022-09-07T15:07:40.080Z,2.30
2022-09-07T15:10:13.954Z,2.80
2022-09-07T15:12:42.619Z,2.00
2022-09-07T15:15:10.973Z,2.40
2022-09-07T15:17:45.719Z,2.13
2022-09-07T15:20:32.224Z,2.00
2022-09-07T15:23:01.055Z,1.80
2022-09-07T15:25:28.686Z,1.80
2022-09-07T15:27:56.241Z,1.80
2022-09-07T15:32:52.059Z,2.35
2022-09-07T15:40:37.250Z,1.95
2022-09-07T15:43:16.425Z,1.75
2022-09-07T15:45:48.126Z,2.30
2022-09-07T15:48:15.983Z,2.63
2022-09-07T15:50:43.482Z,2.53
2022-09-07T15:54:07.541Z,2.15
2022-09-07T15:56:00.604Z,2.13
2022-09-07T15:58:30.469Z,2.17
2022-09-07T16:03:48.932Z,1.98
2022-09-07T16:06:16.500Z,1.80
2022-09-07T16:08:43.929Z,1.92
2022-09-07T16:11:18.465Z,2.08
2022-09-07T16:13:46.866Z,2.03
2022-09-07T16:16:16.064Z,2.13
2022-09-07T16:18:46.738Z,2.17
2022-09-07T16:21:15.503Z,2.00
2022-09-07T16:23:44.026Z,2.15
2022-09-07T16:26:12.160Z,1.83
2022-09-07T16:28:41.838Z,2.13
2022-09-07T16:31:10.305Z,1.58
2022-09-07T16:33:37.815Z,1.77
2022-09-07T16:36:06.333Z,1.90
2022-09-07T16:38:49.361Z,1.63
2022-09-07T16:41:17.825Z,2.10
2022-09-07T16:43:46.713Z,1.67
2022-09-07T16:46:15.102Z,1.67
2022-09-07T16:48:43.783Z,1.77
2022-09-07T16:51:12.721Z,1.48
2022-09-07T16:53:40.132Z,1.80
2022-09-07T16:56:08.485Z,1.77
2022-09-07T16:58:37.639Z,1.40
2022-09-07T17:01:07.906Z,1.67
2022-09-07T17:03:35.630Z,1.80
2022-09-07T17:08:30.569Z,1.27
2022-09-07T17:11:01.612Z,1.60
2022-09-07T17:13:29.266Z,1.73
2022-09-07T17:21:13.067Z,1.85
2022-09-07T17:23:49.380Z,1.67
2022-09-07T17:26:22.389Z,1.63
2022-09-07T17:28:50.687Z,1.33
2022-09-07T17:34:08.928Z,1.60
2022-09-07T17:36:36.355Z,1.52
2022-09-07T17:39:19.881Z,1.70
2022-09-07T17:41:48.079Z,1.75
2022-09-07T17:44:15.517Z,1.60
2022-09-07T17:46:42.948Z,1.35
2022-09-07T17:49:13.939Z,1.60
2022-09-07T17:51:41.466Z,1.38
2022-09-07T17:54:11.644Z,1.67
2022-09-07T17:56:39.808Z,2.13
2022-09-07T18:01:54.971Z,1.58
2022-09-07T18:04:24.034Z,1.67
2022-09-07T18:06:52.091Z,2.05
2022-09-07T18:09:20.088Z,2.20
2022-09-07T18:11:49.344Z,1.92
2022-09-07T18:14:17.290Z,1.98
2022-09-07T18:16:45.346Z,2.33
2022-09-07T18:19:13.250Z,2.65
2022-09-07T18:24:13.869Z,1.70
2022-09-07T18:26:41.640Z,1.70
2022-09-07T18:29:27.386Z,1.83
2022-09-07T18:31:56.043Z,1.95
2022-09-07T18:34:23.604Z,2.17
2022-09-07T18:36:51.179Z,1.88
2022-09-07T18:39:19.924Z,2.40
2022-09-07T18:41:47.396Z,5.50
2022-09-07T18:47:02.302Z,4.90
2022-09-07T18:49:29.990Z,7.05
2022-09-07T18:54:46.234Z,6.30
2022-09-07T18:57:15.306Z,6.60
2022-09-07T18:59:42.808Z,9.98
2022-09-07T19:02:10.487Z,7.47
2022-09-07T19:07:29.680Z,8.98
2022-09-07T19:09:59.045Z,8.15
2022-09-07T19:12:26.529Z,8.98
2022-09-07T19:14:53.945Z,5.90
2022-09-07T19:17:21.353Z,4.55
2022-09-07T19:19:49.293Z,4.97
2022-09-07T19:22:16.662Z,14.80
2022-09-07T19:24:44.064Z,5.10
2022-09-07T19:27:12.792Z,3.65
2022-09-07T19:29:40.223Z,4.57
2022-09-07T19:32:09.270Z,3.75
2022-09-07T19:34:37.452Z,4.00
2022-09-07T19:37:05.586Z,3.85
2022-09-07T19:39:33.141Z,2.78
2022-09-07T19:42:00.955Z,3.15
2022-09-07T19:44:29.696Z,4.60
2022-09-07T19:46:57.148Z,3.00
2022-09-07T19:49:24.591Z,2.90
2022-09-07T19:51:52.197Z,3.35
2022-09-07T19:54:19.883Z,4.15
2022-09-07T19:56:47.392Z,2.75
2022-09-07T19:59:15.179Z,3.67
2022-09-07T20:01:46.181Z,3.83
2022-09-07T20:04:19.531Z,3.63
2022-09-07T20:06:49.463Z,4.10
2022-09-07T20:09:17.469Z,4.47
2022-09-07T20:11:46.931Z,4.78
2022-09-07T20:14:14.598Z,4.75
2022-09-07T20:16:42.188Z,4.30
2022-09-07T20:19:11.619Z,4.72
2022-09-07T20:21:39.019Z,4.80
2022-09-07T20:24:06.646Z,4.45
2022-09-07T20:26:34.073Z,4.55
2022-09-07T20:29:23.868Z,4.70
2022-09-07T20:31:48.942Z,4.82
2022-09-07T20:34:17.751Z,4.43
2022-09-07T20:36:45.204Z,4.00
2022-09-07T20:39:14.686Z,4.15
2022-09-07T20:41:42.191Z,4.00
2022-09-07T20:44:09.617Z,4.10
2022-09-07T20:46:37.229Z,4.65
2022-09-07T20:49:05.227Z,4.47
2022-09-07T20:51:34.033Z,4.15
2022-09-07T20:54:01.453Z,3.95
2022-09-07T20:56:29.537Z,5.38
2022-09-07T20:58:57.892Z,4.10
2022-09-07T21:01:25.398Z,4.45
2022-09-07T21:03:53.454Z,4.20
2022-09-07T21:06:21.323Z,4.60
2022-09-07T21:11:18.267Z,4.57
2022-09-07T21:13:46.627Z,4.53
2022-09-07T21:16:15.497Z,4.47
2022-09-07T21:18:44.005Z,4.35
2022-09-07T21:21:20.397Z,4.82
2022-09-07T21:23:48.084Z,5.22
2022-09-07T21:26:20.482Z,5.50
2022-09-07T21:28:47.916Z,6.97
2022-09-07T21:31:15.393Z,4.97
2022-09-07T21:33:42.860Z,5.40
2022-09-07T21:36:11.264Z,4.85
2022-09-07T21:38:39.360Z,6.90
2022-09-07T21:41:07.082Z,4.90
2022-09-07T21:43:35.878Z,5.18
2022-09-07T21:46:08.116Z,5.15
2022-09-07T21:48:36.122Z,4.82
2022-09-07T21:51:04.028Z,4.35
2022-09-07T21:55:59.447Z,4.97
2022-09-07T21:58:27.173Z,4.90
2022-09-07T22:00:56.858Z,5.10
2022-09-07T22:03:25.381Z,4.82
2022-09-07T22:05:52.912Z,5.57
2022-09-07T22:08:20.636Z,6.15
2022-09-07T22:10:48.178Z,6.03
2022-09-07T22:13:15.610Z,5.80
2022-09-07T22:15:43.134Z,6.30
2022-09-07T22:18:12.880Z,5.40
2022-09-07T22:20:41.107Z,7.07
2022-09-07T22:23:08.514Z,8.30
2022-09-07T22:25:35.890Z,8.32
2022-09-07T22:28:03.445Z,7.65
2022-09-07T22:30:30.942Z,6.70
2022-09-07T22:32:58.422Z,7.90
2022-09-07T22:35:27.196Z,7.00
2022-09-07T22:37:54.619Z,6.95
2022-09-07T22:40:22.014Z,7.35
2022-09-07T22:42:49.408Z,8.07
2022-09-07T22:45:16.919Z,8.80
2022-09-07T22:47:44.316Z,8.98
2022-09-07T22:50:11.757Z,8.15
2022-09-07T22:52:40.476Z,9.18
2022-09-07T22:55:08.130Z,9.43
2022-09-07T22:57:35.637Z,10.00
2022-09-07T23:00:03.493Z,8.75
2022-09-07T23:04:58.215Z,8.73
2022-09-07T23:07:25.653Z,9.20
2022-09-07T23:09:54.619Z,10.02
2022-09-07T23:12:22.046Z,10.60
2022-09-07T23:14:49.423Z,10.57
2022-09-07T23:17:16.946Z,13.32
2022-09-07T23:19:44.357Z,10.43
2022-09-07T23:22:11.722Z,10.80
2022-09-07T23:24:41.498Z,11.63
2022-09-07T23:27:10.212Z,12.25
2022-09-07T23:29:37.596Z,10.55
2022-09-07T23:32:05.017Z,10.02
2022-09-07T23:34:32.415Z,10.85
2022-09-07T23:36:59.818Z,13.50
2022-09-07T23:39:27.247Z,14.07
2022-09-07T23:41:54.647Z,15.77
2022-09-07T23:44:23.384Z,13.63
2022-09-07T23:46:50.787Z,13.52
2022-09-07T23:49:18.212Z,15.13
2022-09-07T23:51:45.612Z,16.00
2022-09-07T23:54:13.303Z,12.73
2022-09-07T23:56:40.706Z,14.52
2022-09-07T23:59:09.206Z,13.20
